Terminal Aerodrome Forecast
Issued by NWS Oklahoma City, OK

Home | Current Version | Previous Version | Text Only | Print | Product List | Glossary On
Versions: 1 2 3 4 5 6 7 8 9 10 11 12 13 14 15 16 17 18 19 20 21 22 23 24 25 26 27 28
000
FTUS44 KOUN 261720
TAFOUN
TAF
KOUN 261720Z 2618/2718 15014G19KT P6SM BKN180 OVC250
      TEMPO 2622/2701 VRB25G40KT 2SM +TSRA BKN020CB OVC070
     FM270100 18012KT P6SM BKN100 BKN250
     FM270400 24012KT P6SM SCT250
     FM270700 33014G20KT P6SM BKN015=

USA.gov is the U.S. government's official web portal to all federal, state and local government web resources and services.